createdAt,value
2022-11-14T00:04:47.217Z,2.42
2022-11-14T00:09:48.808Z,4.80
2022-11-14T00:14:50.285Z,2.90
2022-11-14T00:19:51.746Z,2.30
2022-11-14T00:24:53.272Z,0.80
2022-11-14T00:29:54.777Z,5.60
2022-11-14T00:34:56.253Z,1.45
2022-11-14T00:39:57.709Z,5.55
2022-11-14T00:44:59.154Z,1.45
2022-11-14T00:50:00.706Z,6.65
2022-11-14T00:55:02.200Z,0.40
2022-11-14T01:00:04.785Z,2.42
2022-11-14T01:05:06.579Z,3.17
2022-11-14T01:10:08.737Z,4.55
2022-11-14T01:15:10.619Z,2.45
2022-11-14T01:20:12.039Z,2.78
2022-11-14T01:25:13.443Z,11.88
2022-11-14T01:30:15.100Z,2.53
2022-11-14T01:35:16.711Z,4.00
2022-11-14T01:40:20.734Z,1.75
2022-11-14T01:45:57.921Z,0.95
2022-11-14T01:51:12.226Z,0.77
2022-11-14T01:56:17.357Z,6.90
2022-11-14T02:01:18.981Z,2.20
2022-11-14T02:06:22.567Z,0.82
2022-11-14T02:11:24.058Z,1.05
2022-11-14T02:16:26.882Z,4.53
2022-11-14T02:21:28.437Z,2.08
2022-11-14T02:26:34.318Z,0.70
2022-11-14T02:31:38.304Z,1.55
2022-11-14T02:36:39.763Z,0.80
2022-11-14T02:41:41.275Z,1.85
2022-11-14T02:46:42.751Z,1.40
2022-11-14T02:51:44.165Z,9.80
2022-11-14T02:56:45.644Z,2.08
2022-11-14T03:01:47.126Z,1.33
2022-11-14T03:06:48.802Z,3.60
2022-11-14T03:11:50.345Z,0.63
2022-11-14T03:16:54.462Z,1.33
2022-11-14T03:21:55.952Z,4.43
2022-11-14T03:26:57.498Z,0.85
2022-11-14T03:31:58.985Z,4.25
2022-11-14T03:37:00.669Z,1.95
2022-11-14T03:42:02.143Z,1.52
2022-11-14T03:47:03.523Z,1.45
2022-11-14T03:52:05.159Z,2.50
2022-11-14T03:57:06.745Z,1.70
2022-11-14T04:02:08.192Z,3.35
2022-11-14T04:07:09.702Z,4.20
2022-11-14T04:12:15.478Z,1.40
2022-11-14T04:17:17.501Z,3.00
2022-11-14T04:22:18.953Z,1.95
2022-11-14T04:27:20.481Z,2.40
2022-11-14T04:32:21.946Z,2.35
2022-11-14T04:37:23.576Z,1.50
2022-11-14T04:42:25.369Z,3.47
2022-11-14T04:47:26.830Z,4.18
2022-11-14T04:52:28.530Z,4.43
2022-11-14T04:57:29.962Z,1.88
2022-11-14T05:02:31.989Z,3.60
2022-11-14T05:07:33.578Z,2.80
2022-11-14T05:12:35.377Z,6.07
2022-11-14T05:17:36.993Z,3.70
2022-11-14T05:22:38.623Z,3.45
2022-11-14T05:27:40.062Z,4.32
2022-11-14T05:32:41.763Z,4.18
2022-11-14T05:37:43.219Z,3.20
2022-11-14T05:42:44.982Z,5.75
2022-11-14T05:47:46.458Z,11.05
2022-11-14T05:52:47.934Z,11.32
2022-11-14T05:57:49.394Z,19.98
2022-11-14T06:02:54.787Z,10.02
2022-11-14T06:07:57.304Z,11.48
2022-11-14T06:12:58.767Z,12.65
2022-11-14T06:18:03.310Z,15.95
2022-11-14T06:23:04.968Z,15.70
2022-11-14T06:28:06.422Z,15.02
2022-11-14T06:33:07.982Z,11.63
2022-11-14T06:38:09.400Z,14.13
2022-11-14T06:43:10.833Z,19.17
2022-11-14T06:48:12.369Z,16.48
2022-11-14T06:53:13.836Z,11.55
2022-11-14T06:58:15.253Z,19.42
2022-11-14T07:03:16.839Z,14.38
2022-11-14T07:08:21.058Z,12.75
2022-11-14T07:13:22.822Z,16.20
2022-11-14T07:18:24.635Z,13.38
2022-11-14T07:23:26.162Z,15.82
2022-11-14T07:28:27.727Z,13.68
2022-11-14T07:33:31.041Z,13.63
2022-11-14T07:38:34.017Z,10.85
2022-11-14T07:43:35.456Z,7.72
2022-11-14T07:48:37.704Z,7.90
2022-11-14T07:53:39.214Z,9.23
2022-11-14T07:58:41.571Z,10.52
2022-11-14T08:03:45.903Z,8.23
2022-11-14T08:08:47.813Z,6.38
2022-11-14T08:13:49.218Z,6.95
2022-11-14T08:18:50.770Z,11.25
2022-11-14T08:23:53.121Z,8.73
2022-11-14T08:28:54.737Z,10.73
2022-11-14T08:33:56.183Z,12.25
2022-11-14T08:39:01.759Z,17.45
2022-11-14T08:44:03.677Z,15.25
2022-11-14T08:49:05.344Z,13.73
2022-11-14T08:54:06.875Z,21.50
2022-11-14T08:59:08.323Z,32.65
2022-11-14T09:04:09.997Z,21.33
2022-11-14T09:09:11.905Z,19.63
2022-11-14T09:14:13.322Z,20.55
2022-11-14T09:19:14.801Z,21.48
2022-11-14T09:24:16.281Z,19.67
2022-11-14T09:29:17.957Z,23.73
2022-11-14T09:34:19.563Z,22.35
2022-11-14T09:39:21.082Z,23.92
2022-11-14T09:44:36.686Z,22.25
2022-11-14T09:49:46.293Z,25.35
2022-11-14T09:55:01.162Z,20.90
2022-11-14T10:00:04.113Z,15.00
2022-11-14T10:05:44.506Z,18.67
2022-11-14T10:10:56.678Z,25.55
2022-11-14T10:16:30.987Z,21.40
2022-11-14T10:22:00.952Z,20.45
2022-11-14T10:27:04.567Z,21.42
2022-11-14T10:32:08.736Z,22.75
2022-11-14T10:37:29.815Z,21.55
2022-11-14T10:42:36.997Z,26.58
2022-11-14T10:47:43.566Z,16.10
2022-11-14T10:52:46.172Z,21.88
2022-11-14T10:57:48.055Z,17.60
2022-11-14T11:02:55.339Z,15.13
2022-11-14T11:08:15.048Z,15.85
2022-11-14T11:13:35.042Z,13.75
2022-11-14T11:18:37.426Z,18.17
2022-11-14T11:24:08.775Z,18.65
2022-11-14T11:29:10.169Z,13.73
2022-11-14T11:34:11.715Z,18.83
2022-11-14T11:39:30.134Z,18.67
2022-11-14T11:44:53.641Z,16.60
2022-11-14T11:49:56.485Z,16.75
2022-11-14T11:55:09.680Z,15.10
2022-11-14T12:00:22.325Z,14.90
2022-11-14T12:05:32.253Z,19.60
2022-11-14T12:10:40.580Z,21.58
2022-11-14T12:15:57.318Z,13.13
2022-11-14T12:21:26.472Z,22.05
2022-11-14T12:26:41.901Z,17.27
2022-11-14T12:31:44.024Z,14.70
2022-11-14T12:36:45.543Z,14.55
2022-11-14T12:41:47.210Z,15.20
2022-11-14T12:47:07.051Z,15.35
2022-11-14T12:52:40.330Z,16.95
2022-11-14T12:57:46.899Z,17.85
2022-11-14T13:02:57.461Z,16.13
2022-11-14T13:08:18.499Z,11.75
2022-11-14T13:13:20.275Z,14.13
2022-11-14T13:18:25.007Z,17.48
2022-11-14T13:23:26.449Z,16.70
2022-11-14T13:28:48.991Z,15.05
2022-11-14T13:33:56.629Z,16.50
2022-11-14T13:39:09.996Z,13.57
2022-11-14T13:44:32.809Z,21.48
2022-11-14T13:50:00.212Z,13.65
2022-11-14T13:55:02.476Z,15.38
2022-11-14T14:00:19.553Z,14.07
2022-11-14T14:05:39.606Z,15.90
2022-11-14T14:10:59.829Z,18.30
2022-11-14T14:16:07.417Z,15.40
2022-11-14T14:21:21.880Z,13.20
2022-11-14T14:26:38.289Z,13.60
2022-11-14T14:31:41.966Z,13.65
2022-11-14T14:36:50.731Z,14.07
2022-11-14T14:41:58.022Z,14.35
2022-11-14T14:47:14.838Z,13.30
2022-11-14T14:52:21.814Z,15.27
2022-11-14T14:57:23.682Z,13.20
2022-11-14T15:02:25.969Z,13.10
2022-11-14T15:07:29.942Z,11.50
2022-11-14T15:12:32.329Z,9.57
2022-11-14T15:17:35.946Z,8.25
2022-11-14T15:22:37.546Z,14.07
2022-11-14T15:28:19.751Z,10.15
2022-11-14T15:33:33.794Z,9.60
2022-11-14T15:38:44.656Z,8.52
2022-11-14T15:43:47.615Z,9.48
2022-11-14T15:49:09.360Z,10.02
2022-11-14T15:54:24.755Z,11.73
2022-11-14T15:59:27.629Z,11.18
2022-11-14T16:04:32.773Z,12.13
2022-11-14T16:09:34.763Z,11.00
2022-11-14T16:14:36.279Z,7.15
2022-11-14T16:19:37.752Z,10.38
2022-11-14T16:24:39.469Z,9.80
2022-11-14T16:29:40.909Z,6.25
2022-11-14T16:34:42.461Z,10.35
2022-11-14T16:39:43.987Z,8.00
2022-11-14T16:44:50.462Z,12.18
2022-11-14T16:49:52.356Z,7.50
2022-11-14T16:54:53.886Z,7.55
2022-11-14T16:59:55.342Z,7.18
2022-11-14T17:04:56.728Z,5.78
2022-11-14T17:09:58.288Z,5.65
2022-11-14T17:14:59.961Z,5.63
2022-11-14T17:20:01.463Z,6.70
2022-11-14T17:25:03.031Z,7.28
2022-11-14T17:30:04.961Z,6.60
2022-11-14T17:35:06.997Z,7.47
2022-11-14T17:40:15.166Z,7.35
2022-11-14T17:45:17.051Z,6.30
2022-11-14T17:50:18.637Z,9.10
2022-11-14T17:55:20.079Z,10.32
2022-11-14T18:00:21.670Z,13.38
2022-11-14T18:05:23.532Z,8.82
2022-11-14T18:10:25.037Z,10.65
2022-11-14T18:15:28.113Z,9.40
2022-11-14T18:20:30.141Z,5.15
2022-11-14T18:25:31.677Z,9.27
2022-11-14T18:30:41.339Z,9.20
2022-11-14T18:35:43.337Z,6.57
2022-11-14T18:40:44.781Z,7.18
2022-11-14T18:45:46.211Z,8.70
2022-11-14T18:50:47.750Z,5.65
2022-11-14T18:55:49.182Z,5.93
2022-11-14T19:00:50.729Z,9.73
2022-11-14T19:05:52.312Z,6.50
2022-11-14T19:10:53.722Z,8.68
2022-11-14T19:15:55.295Z,7.75
2022-11-14T19:21:02.057Z,14.60
2022-11-14T19:26:03.463Z,4.13
2022-11-14T19:31:06.210Z,10.35
2022-11-14T19:36:11.054Z,6.72
2022-11-14T19:41:18.840Z,6.63
2022-11-14T19:46:20.443Z,7.43
2022-11-14T19:51:21.967Z,25.05
2022-11-14T19:56:24.626Z,6.20
2022-11-14T20:01:27.610Z,5.05
2022-11-14T20:06:32.427Z,7.68
2022-11-14T20:11:33.962Z,8.48
2022-11-14T20:16:36.858Z,10.82
2022-11-14T20:21:38.382Z,8.02
2022-11-14T20:26:39.796Z,12.70
2022-11-14T20:31:42.529Z,6.60
2022-11-14T20:37:09.412Z,6.70
2022-11-14T20:42:05.652Z,7.35
2022-11-14T20:47:10.785Z,8.00
2022-11-14T20:52:12.832Z,7.95
2022-11-14T20:57:14.281Z,7.13
2022-11-14T21:02:15.836Z,7.40
2022-11-14T21:07:17.364Z,5.57
2022-11-14T21:12:18.870Z,5.68
2022-11-14T21:17:20.384Z,7.68
2022-11-14T21:22:21.817Z,8.27
2022-11-14T21:27:23.261Z,6.57
2022-11-14T21:32:24.729Z,5.05
2022-11-14T21:37:26.279Z,5.43
2022-11-14T21:42:27.767Z,8.38
2022-11-14T21:47:29.219Z,12.70
2022-11-14T21:52:32.646Z,8.77
2022-11-14T21:57:34.110Z,5.97
2022-11-14T22:02:35.574Z,11.32
2022-11-14T22:07:40.320Z,6.60
2022-11-14T22:12:41.798Z,7.68
2022-11-14T22:17:43.346Z,5.45
2022-11-14T22:22:44.858Z,5.53
2022-11-14T22:27:46.348Z,7.38
2022-11-14T22:32:47.844Z,7.97
2022-11-14T22:37:49.287Z,8.43
2022-11-14T22:42:50.786Z,2.75
2022-11-14T22:47:57.228Z,6.82
2022-11-14T22:52:58.667Z,5.15
2022-11-14T22:58:00.427Z,7.63
2022-11-14T23:03:02.318Z,4.47
2022-11-14T23:08:06.923Z,4.90
2022-11-14T23:13:08.791Z,3.00
2022-11-14T23:18:10.186Z,3.63
2022-11-14T23:23:11.771Z,3.78
2022-11-14T23:28:13.204Z,6.45
2022-11-14T23:33:14.709Z,4.72
2022-11-14T23:38:16.365Z,3.33
2022-11-14T23:43:17.853Z,4.25
2022-11-14T23:48:20.950Z,5.68
2022-11-14T23:53:23.226Z,5.72
2022-11-14T23:58:26.706Z,3.30
